createdAt,value
2017-05-05T00:00:19.714Z,5.62
2017-05-05T00:02:46.374Z,5.40
2017-05-05T00:05:13.059Z,4.97
2017-05-05T00:07:39.718Z,5.78
2017-05-05T00:10:06.378Z,4.90
2017-05-05T00:12:33.034Z,5.20
2017-05-05T00:14:59.685Z,4.88
2017-05-05T00:17:26.365Z,4.37
2017-05-05T00:19:53.023Z,5.12
2017-05-05T00:22:19.674Z,5.85
2017-05-05T00:24:46.334Z,4.67
2017-05-05T00:27:12.996Z,5.53
2017-05-05T00:29:39.659Z,4.53
2017-05-05T00:32:06.318Z,4.95
2017-05-05T00:34:32.972Z,5.28
2017-05-05T00:36:59.630Z,5.28
2017-05-05T00:39:26.283Z,5.75
2017-05-05T00:41:52.986Z,4.70
2017-05-05T00:44:19.642Z,5.45
2017-05-05T00:46:46.293Z,4.57
2017-05-05T00:49:12.950Z,4.55
2017-05-05T00:51:39.610Z,4.62
2017-05-05T00:54:06.263Z,5.38
2017-05-05T00:56:32.923Z,4.57
2017-05-05T00:58:59.601Z,5.17
2017-05-05T01:01:26.262Z,4.40
2017-05-05T01:03:53.063Z,4.25
2017-05-05T01:06:19.723Z,5.27
2017-05-05T01:08:46.414Z,11.93
2017-05-05T01:11:13.070Z,4.72
2017-05-05T01:13:39.726Z,5.35
2017-05-05T01:16:06.386Z,5.90
2017-05-05T01:18:33.047Z,5.23
2017-05-05T01:20:59.706Z,5.45
2017-05-05T01:23:26.359Z,4.80
2017-05-05T01:25:53.019Z,6.08
2017-05-05T01:28:19.682Z,6.38
2017-05-05T01:30:46.334Z,6.38
2017-05-05T01:33:12.995Z,6.65
2017-05-05T01:35:39.646Z,5.32
2017-05-05T01:38:06.302Z,6.35
2017-05-05T01:40:32.967Z,5.70
2017-05-05T01:42:59.627Z,6.10
2017-05-05T01:45:26.306Z,8.58
2017-05-05T01:47:52.963Z,6.33
2017-05-05T01:50:19.662Z,5.68
2017-05-05T01:52:46.318Z,7.50
2017-05-05T01:55:12.989Z,6.53
2017-05-05T01:57:39.663Z,6.60
2017-05-05T02:00:06.322Z,5.48
2017-05-05T02:02:32.984Z,5.53
2017-05-05T02:04:59.639Z,6.62
2017-05-05T02:07:26.294Z,6.50
2017-05-05T02:09:52.952Z,5.77
2017-05-05T02:12:19.631Z,6.77
2017-05-05T02:14:46.291Z,6.12
2017-05-05T02:17:12.962Z,7.10
2017-05-05T02:19:39.623Z,9.10
2017-05-05T02:22:06.311Z,7.32
2017-05-05T02:24:32.971Z,6.50
2017-05-05T02:26:59.659Z,6.87
2017-05-05T02:29:26.327Z,6.70
2017-05-05T02:31:52.978Z,6.15
2017-05-05T02:34:19.634Z,7.67
2017-05-05T02:36:46.291Z,9.73
2017-05-05T02:39:12.946Z,7.62
2017-05-05T02:41:39.606Z,7.67
2017-05-05T02:44:06.289Z,8.68
2017-05-05T02:46:32.946Z,8.70
2017-05-05T02:48:59.602Z,9.68
2017-05-05T02:51:26.262Z,10.25
2017-05-05T02:53:52.946Z,9.17
2017-05-05T02:56:19.608Z,9.52
2017-05-05T02:58:46.266Z,8.98
2017-05-05T03:01:12.934Z,10.52
2017-05-05T03:03:39.597Z,10.58
2017-05-05T03:06:06.261Z,10.08
2017-05-05T03:08:32.919Z,10.07
2017-05-05T03:10:59.586Z,11.32
2017-05-05T03:13:26.575Z,10.08
2017-05-05T03:15:53.234Z,8.85
2017-05-05T03:18:19.899Z,11.45
2017-05-05T03:20:46.557Z,9.60
2017-05-05T03:23:13.229Z,8.23
2017-05-05T03:25:39.882Z,9.20
2017-05-05T03:28:06.538Z,8.55
2017-05-05T03:30:33.203Z,11.67
2017-05-05T03:32:59.863Z,11.97
2017-05-05T03:35:26.526Z,10.43
2017-05-05T03:37:53.216Z,11.05
2017-05-05T03:40:19.886Z,13.62
2017-05-05T03:42:46.582Z,10.73
2017-05-05T03:45:13.242Z,10.62
2017-05-05T03:47:39.968Z,11.05
2017-05-05T03:50:06.621Z,9.98
2017-05-05T03:52:33.280Z,10.32
2017-05-05T03:54:59.946Z,9.97
2017-05-05T03:57:26.606Z,9.83
2017-05-05T03:59:53.263Z,8.77
2017-05-05T04:02:19.926Z,9.72
2017-05-05T04:04:46.604Z,10.93
2017-05-05T04:07:13.278Z,9.53
2017-05-05T04:09:39.959Z,11.43
2017-05-05T04:12:06.613Z,10.35
2017-05-05T04:14:33.299Z,10.77
2017-05-05T04:16:59.965Z,10.62
2017-05-05T04:19:26.623Z,9.47
2017-05-05T04:21:53.286Z,10.13
2017-05-05T04:24:19.947Z,11.77
2017-05-05T04:26:46.613Z,11.75
2017-05-05T04:29:13.283Z,11.58
2017-05-05T04:31:39.983Z,11.82
2017-05-05T04:34:06.642Z,11.77
2017-05-05T04:36:33.459Z,12.60
2017-05-05T04:39:00.149Z,9.80
2017-05-05T04:41:26.844Z,10.38
2017-05-05T04:43:53.506Z,10.47
2017-05-05T04:46:20.166Z,10.62
2017-05-05T04:48:46.826Z,10.88
2017-05-05T04:51:13.493Z,10.92
2017-05-05T04:53:40.170Z,9.20
2017-05-05T04:56:06.826Z,10.47
2017-05-05T04:58:33.490Z,11.00
2017-05-05T05:01:00.158Z,10.37
2017-05-05T05:03:26.841Z,12.07
2017-05-05T05:05:53.512Z,10.28
2017-05-05T05:08:20.201Z,9.68
2017-05-05T05:10:46.919Z,10.75
2017-05-05T05:13:13.574Z,9.62
2017-05-05T05:15:40.243Z,11.65
2017-05-05T05:18:06.908Z,11.03
2017-05-05T05:20:33.594Z,10.82
2017-05-05T05:23:00.254Z,10.80
2017-05-05T05:25:26.934Z,10.33
2017-05-05T05:27:53.603Z,10.00
2017-05-05T05:30:20.314Z,12.27
2017-05-05T05:32:46.975Z,10.80
2017-05-05T05:35:13.634Z,9.75
2017-05-05T05:37:40.295Z,10.37
2017-05-05T05:40:06.955Z,10.80
2017-05-05T05:42:33.610Z,12.67
2017-05-05T05:45:00.277Z,10.58
2017-05-05T05:47:26.931Z,9.93
2017-05-05T05:49:53.586Z,9.75
2017-05-05T05:52:20.258Z,10.52
2017-05-05T05:54:46.930Z,11.03
2017-05-05T05:57:13.594Z,11.72
2017-05-05T05:59:40.259Z,9.72
2017-05-05T06:02:06.950Z,9.58
2017-05-05T06:04:33.606Z,11.37
2017-05-05T06:07:00.262Z,9.17
2017-05-05T06:09:26.922Z,12.90
2017-05-05T06:11:53.578Z,10.32
2017-05-05T06:14:20.235Z,10.28
2017-05-05T06:16:46.888Z,9.23
2017-05-05T06:19:13.543Z,9.72
2017-05-05T06:21:40.203Z,8.18
2017-05-05T06:24:06.862Z,7.80
2017-05-05T06:26:33.522Z,8.33
2017-05-05T06:29:00.178Z,6.68
2017-05-05T06:31:26.834Z,7.18
2017-05-05T06:33:53.489Z,7.70
2017-05-05T06:36:20.146Z,8.03
2017-05-05T06:38:46.798Z,8.53
2017-05-05T06:41:13.450Z,7.93
2017-05-05T06:43:40.119Z,7.43
2017-05-05T06:46:06.779Z,7.93
2017-05-05T06:48:33.434Z,7.98
2017-05-05T06:51:00.102Z,7.63
2017-05-05T06:53:26.758Z,8.10
2017-05-05T06:55:53.414Z,7.93
2017-05-05T06:58:20.081Z,7.92
2017-05-05T07:00:46.738Z,6.52
2017-05-05T07:03:13.435Z,7.28
2017-05-05T07:05:40.099Z,7.78
2017-05-05T07:08:06.763Z,8.03
2017-05-05T07:10:33.418Z,8.73
2017-05-05T07:13:00.078Z,7.78
2017-05-05T07:15:26.739Z,7.05
2017-05-05T07:17:53.415Z,7.60
2017-05-05T07:20:20.070Z,6.53
2017-05-05T07:22:46.731Z,7.52
2017-05-05T07:25:13.407Z,7.28
2017-05-05T07:27:40.062Z,9.03
2017-05-05T07:30:06.718Z,6.62
2017-05-05T07:32:33.387Z,7.68
2017-05-05T07:35:00.070Z,8.17
2017-05-05T07:37:26.726Z,9.43
2017-05-05T07:39:53.395Z,8.12
2017-05-05T07:42:20.057Z,8.33
2017-05-05T07:44:46.709Z,8.48
2017-05-05T07:47:13.364Z,8.63
2017-05-05T07:49:40.023Z,8.78
2017-05-05T07:52:06.686Z,8.48
2017-05-05T07:54:33.348Z,9.12
2017-05-05T07:57:00.034Z,9.38
2017-05-05T07:59:26.701Z,8.98
2017-05-05T08:01:53.360Z,9.60
2017-05-05T08:04:20.046Z,8.70
2017-05-05T08:06:46.710Z,11.65
2017-05-05T08:09:13.370Z,8.65
2017-05-05T08:11:40.026Z,10.45
2017-05-05T08:14:06.702Z,9.90
2017-05-05T08:16:33.362Z,9.38
2017-05-05T08:19:00.036Z,11.18
2017-05-05T08:21:26.722Z,9.72
2017-05-05T08:23:53.415Z,9.75
2017-05-05T08:26:20.090Z,10.03
2017-05-05T08:28:46.777Z,10.60
2017-05-05T08:31:13.454Z,9.97
2017-05-05T08:33:40.130Z,9.43
2017-05-05T08:36:06.786Z,9.22
2017-05-05T08:38:33.490Z,8.90
2017-05-05T08:41:00.165Z,9.10
2017-05-05T08:43:26.866Z,8.68
2017-05-05T08:45:53.530Z,8.78
2017-05-05T08:48:20.210Z,9.13
2017-05-05T08:50:46.875Z,9.32
2017-05-05T08:53:13.530Z,9.72
2017-05-05T08:55:40.194Z,10.33
2017-05-05T08:58:06.854Z,11.47
2017-05-05T09:00:33.511Z,8.60
2017-05-05T09:03:00.175Z,9.60
2017-05-05T09:05:26.834Z,9.83
2017-05-05T09:07:53.502Z,11.63
2017-05-05T09:10:20.167Z,12.65
2017-05-05T09:12:46.830Z,10.65
2017-05-05T09:15:13.519Z,11.65
2017-05-05T09:17:40.191Z,13.47
2017-05-05T09:20:06.866Z,12.52
2017-05-05T09:22:33.534Z,9.93
2017-05-05T09:25:00.226Z,11.23
2017-05-05T09:27:26.893Z,12.80
2017-05-05T09:29:53.566Z,12.48
2017-05-05T09:32:20.239Z,11.95
2017-05-05T09:34:46.916Z,11.92
2017-05-05T09:37:13.589Z,12.15
2017-05-05T09:39:40.262Z,13.22
2017-05-05T09:42:06.975Z,12.13
2017-05-05T09:44:33.664Z,11.58
2017-05-05T09:47:00.325Z,12.50
2017-05-05T09:49:27.002Z,12.53
2017-05-05T09:51:53.679Z,13.48
2017-05-05T09:54:20.619Z,11.93
2017-05-05T09:56:47.278Z,13.03
2017-05-05T09:59:13.959Z,13.85
2017-05-05T10:01:40.630Z,16.00
2017-05-05T10:04:07.311Z,14.35
2017-05-05T10:06:34.025Z,13.47
2017-05-05T10:09:00.694Z,13.70
2017-05-05T10:11:27.382Z,15.35
2017-05-05T10:13:54.058Z,11.93
2017-05-05T10:16:20.724Z,11.78
2017-05-05T10:18:47.390Z,11.93
2017-05-05T10:21:14.071Z,12.63
2017-05-05T10:23:40.758Z,13.57
2017-05-05T10:26:07.450Z,12.38
2017-05-05T10:28:34.115Z,13.02
2017-05-05T10:31:00.831Z,14.22
2017-05-05T10:33:27.494Z,12.02
2017-05-05T10:35:54.157Z,12.35
2017-05-05T10:38:20.823Z,12.22
2017-05-05T10:40:47.501Z,10.87
2017-05-05T10:43:14.215Z,14.42
2017-05-05T10:45:40.885Z,11.38
2017-05-05T10:48:07.887Z,12.10
2017-05-05T10:50:34.562Z,12.45
2017-05-05T10:53:01.231Z,11.38
2017-05-05T10:55:27.901Z,11.10
2017-05-05T10:57:54.570Z,14.18
2017-05-05T11:00:21.235Z,10.20
2017-05-05T11:02:47.898Z,10.55
2017-05-05T11:05:14.570Z,11.15
2017-05-05T11:07:41.240Z,10.72
2017-05-05T11:10:07.905Z,14.08
2017-05-05T11:12:34.570Z,11.38
2017-05-05T11:15:01.296Z,11.48
2017-05-05T11:17:27.961Z,10.02
2017-05-05T11:19:54.617Z,10.27
2017-05-05T11:22:21.286Z,12.63
2017-05-05T11:24:47.950Z,11.52
2017-05-05T11:27:14.622Z,11.30
2017-05-05T11:29:41.295Z,11.20
2017-05-05T11:32:07.995Z,11.78
2017-05-05T11:34:34.708Z,11.10
2017-05-05T11:37:01.405Z,12.23
2017-05-05T11:39:28.117Z,12.28
2017-05-05T11:41:54.800Z,11.58
2017-05-05T11:44:21.535Z,10.75
2017-05-05T11:46:48.202Z,10.70
2017-05-05T11:49:14.915Z,10.37
2017-05-05T11:51:41.578Z,10.35
2017-05-05T11:54:08.242Z,12.33
2017-05-05T11:56:34.911Z,11.83
2017-05-05T11:59:01.583Z,10.50
2017-05-05T12:01:28.263Z,12.60
2017-05-05T12:03:54.946Z,12.27
2017-05-05T12:06:21.620Z,10.95
2017-05-05T12:08:48.307Z,12.80
2017-05-05T12:11:14.997Z,11.05
2017-05-05T12:13:41.666Z,12.07
2017-05-05T12:16:08.400Z,11.05
2017-05-05T12:18:35.070Z,12.05
2017-05-05T12:21:01.795Z,13.40
2017-05-05T12:23:28.476Z,12.18
2017-05-05T12:25:55.154Z,12.10
2017-05-05T12:28:21.824Z,11.22
2017-05-05T12:30:48.503Z,13.55
2017-05-05T12:33:15.181Z,14.97
2017-05-05T12:35:41.843Z,13.15
2017-05-05T12:38:08.522Z,14.72
2017-05-05T12:40:35.211Z,12.80
2017-05-05T12:43:01.942Z,13.75
2017-05-05T12:45:28.626Z,12.08
2017-05-05T12:47:55.296Z,12.67
2017-05-05T12:50:21.970Z,13.32
2017-05-05T12:52:48.663Z,16.13
2017-05-05T12:55:15.333Z,12.68
2017-05-05T12:57:42.022Z,15.62
2017-05-05T13:00:08.684Z,14.60
2017-05-05T13:02:35.393Z,13.17
2017-05-05T13:05:02.060Z,16.85
2017-05-05T13:07:28.735Z,14.30
2017-05-05T13:09:55.418Z,13.82
2017-05-05T13:12:22.120Z,14.38
2017-05-05T13:14:48.803Z,13.93
2017-05-05T13:17:15.487Z,14.13
2017-05-05T13:19:42.156Z,16.35
2017-05-05T13:22:08.814Z,13.73
2017-05-05T13:24:35.491Z,16.75
2017-05-05T13:27:02.167Z,14.58
2017-05-05T13:29:28.846Z,15.10
2017-05-05T13:31:55.518Z,15.13
2017-05-05T13:34:22.182Z,15.90
2017-05-05T13:36:48.850Z,13.77
2017-05-05T13:39:15.523Z,14.10
2017-05-05T13:41:42.194Z,12.77
2017-05-05T13:44:08.895Z,13.75
2017-05-05T13:46:35.567Z,12.73
2017-05-05T13:49:02.279Z,13.05
2017-05-05T13:51:28.956Z,13.55
2017-05-05T13:53:55.638Z,16.47
2017-05-05T13:56:22.380Z,14.90
2017-05-05T13:58:49.051Z,13.77
2017-05-05T14:01:15.722Z,15.68
2017-05-05T14:03:42.398Z,15.12
2017-05-05T14:06:09.100Z,14.85
2017-05-05T14:08:35.787Z,17.33
2017-05-05T14:11:02.454Z,15.47
2017-05-05T14:13:29.139Z,16.98
2017-05-05T14:15:55.803Z,17.17
2017-05-05T14:18:22.470Z,16.82
2017-05-05T14:20:49.190Z,21.07
2017-05-05T14:23:15.870Z,18.65
2017-05-05T14:25:42.585Z,18.98
2017-05-05T14:28:09.250Z,16.23
2017-05-05T14:30:35.943Z,17.75
2017-05-05T14:33:02.890Z,20.03
2017-05-05T14:35:29.563Z,16.40
2017-05-05T14:37:56.282Z,17.13
2017-05-05T14:40:22.958Z,18.45
2017-05-05T14:42:49.642Z,15.70
2017-05-05T14:45:16.322Z,21.63
2017-05-05T14:47:42.987Z,18.78
2017-05-05T14:50:09.658Z,17.42
2017-05-05T14:52:36.326Z,16.57
2017-05-05T14:55:03.014Z,16.33
2017-05-05T14:57:29.722Z,17.15
2017-05-05T14:59:56.381Z,17.82
2017-05-05T15:02:23.086Z,16.95
2017-05-05T15:04:49.782Z,20.73
2017-05-05T15:07:16.453Z,19.83
2017-05-05T15:09:43.123Z,21.57
2017-05-05T15:12:09.799Z,19.47
2017-05-05T15:14:36.466Z,19.37
2017-05-05T15:17:03.174Z,19.00
2017-05-05T15:19:29.846Z,21.07
2017-05-05T15:21:56.516Z,17.78
2017-05-05T15:24:23.210Z,19.38
2017-05-05T15:26:49.886Z,20.10
2017-05-05T15:29:16.555Z,19.92
2017-05-05T15:31:43.230Z,18.28
2017-05-05T15:34:09.944Z,19.37
2017-05-05T15:36:36.640Z,17.40
2017-05-05T15:39:03.335Z,20.58
2017-05-05T15:41:30.010Z,20.15
2017-05-05T15:43:56.683Z,17.72
2017-05-05T15:46:23.362Z,18.90
2017-05-05T15:48:50.082Z,18.97
2017-05-05T15:51:16.762Z,20.28
2017-05-05T15:53:43.460Z,19.55
2017-05-05T15:56:10.123Z,18.78
2017-05-05T15:58:36.801Z,20.22
2017-05-05T16:01:03.489Z,21.57
2017-05-05T16:03:30.191Z,23.72
2017-05-05T16:05:56.862Z,21.43
2017-05-05T16:08:23.550Z,20.38
2017-05-05T16:10:50.221Z,23.55
2017-05-05T16:13:16.901Z,19.83
2017-05-05T16:15:43.570Z,19.98
2017-05-05T16:18:10.238Z,19.12
2017-05-05T16:20:36.905Z,18.33
2017-05-05T16:23:03.586Z,20.88
2017-05-05T16:25:30.288Z,20.02
2017-05-05T16:27:56.954Z,20.87
2017-05-05T16:30:23.646Z,20.87
2017-05-05T16:32:50.324Z,21.57
2017-05-05T16:35:17.034Z,24.12
2017-05-05T16:37:43.705Z,21.37
2017-05-05T16:40:10.404Z,20.03
2017-05-05T16:42:37.070Z,19.68
2017-05-05T16:45:03.739Z,24.38
2017-05-05T16:47:30.416Z,23.17
2017-05-05T16:49:57.099Z,24.08
2017-05-05T16:52:23.790Z,25.68
2017-05-05T16:54:50.506Z,23.78
2017-05-05T16:57:17.178Z,24.60
2017-05-05T16:59:43.882Z,25.38
2017-05-05T17:02:10.554Z,22.12
2017-05-05T17:04:37.230Z,20.18
2017-05-05T17:07:03.922Z,22.03
2017-05-05T17:09:30.606Z,25.10
2017-05-05T17:11:57.278Z,22.17
2017-05-05T17:14:23.958Z,27.12
2017-05-05T17:16:50.646Z,20.42
2017-05-05T17:19:17.317Z,22.82
2017-05-05T17:21:44.022Z,20.03
2017-05-05T17:24:10.726Z,23.20
2017-05-05T17:26:37.426Z,22.88
2017-05-05T17:29:04.109Z,18.87
2017-05-05T17:31:30.806Z,20.97
2017-05-05T17:33:57.489Z,20.88
2017-05-05T17:36:24.160Z,20.35
2017-05-05T17:38:50.870Z,19.30
2017-05-05T17:41:17.562Z,22.73
2017-05-05T17:43:44.634Z,24.50
2017-05-05T17:46:11.302Z,21.15
2017-05-05T17:48:37.974Z,24.82
2017-05-05T17:51:04.886Z,20.97
2017-05-05T17:53:31.563Z,25.58
2017-05-05T17:55:58.247Z,21.78
2017-05-05T17:58:24.914Z,22.15
2017-05-05T18:00:51.583Z,22.87
2017-05-05T18:03:18.270Z,24.30
2017-05-05T18:05:44.939Z,25.35
2017-05-05T18:08:11.630Z,22.45
2017-05-05T18:10:38.302Z,22.27
2017-05-05T18:13:04.975Z,26.95
2017-05-05T18:15:31.659Z,22.05
2017-05-05T18:17:58.373Z,23.53
2017-05-05T18:20:25.059Z,26.27
2017-05-05T18:22:51.727Z,26.25
2017-05-05T18:25:18.520Z,27.25
2017-05-05T18:27:45.220Z,25.75
2017-05-05T18:30:11.894Z,29.40
2017-05-05T18:32:38.592Z,29.55
2017-05-05T18:35:05.278Z,32.87
2017-05-05T18:37:31.955Z,33.27
2017-05-05T18:39:58.691Z,31.53
2017-05-05T18:42:25.373Z,32.30
2017-05-05T18:44:52.062Z,32.28
2017-05-05T18:47:18.763Z,30.07
2017-05-05T18:49:45.450Z,29.73
2017-05-05T18:52:12.142Z,27.53
2017-05-05T18:54:38.815Z,29.93
2017-05-05T18:57:05.478Z,34.83
2017-05-05T18:59:32.170Z,34.88
2017-05-05T19:01:58.846Z,32.82
2017-05-05T19:04:25.566Z,33.28
2017-05-05T19:06:52.230Z,30.88
2017-05-05T19:09:18.890Z,34.22
2017-05-05T19:11:45.559Z,32.52
2017-05-05T19:14:12.226Z,35.00
2017-05-05T19:16:38.908Z,32.72
2017-05-05T19:19:05.583Z,31.85
2017-05-05T19:21:32.270Z,36.48
2017-05-05T19:23:58.941Z,34.23
2017-05-05T19:26:25.607Z,36.78
2017-05-05T19:28:52.275Z,37.72
2017-05-05T19:31:18.944Z,35.85
2017-05-05T19:33:45.614Z,46.63
2017-05-05T19:36:12.282Z,36.53
2017-05-05T19:38:38.953Z,41.68
2017-05-05T19:41:05.666Z,40.47
2017-05-05T19:43:32.339Z,41.53
2017-05-05T19:45:59.003Z,40.77
2017-05-05T19:48:25.668Z,42.25
2017-05-05T19:50:52.345Z,41.40
2017-05-05T19:53:19.014Z,43.70
2017-05-05T19:55:45.706Z,37.28
2017-05-05T19:58:12.425Z,41.50
2017-05-05T20:00:39.130Z,37.48
2017-05-05T20:03:05.790Z,39.52
2017-05-05T20:05:32.459Z,41.80
2017-05-05T20:07:59.130Z,44.75
2017-05-05T20:10:25.794Z,44.27
2017-05-05T20:12:52.569Z,40.35
2017-05-05T20:15:19.372Z,40.70
2017-05-05T20:17:46.171Z,43.80
2017-05-05T20:20:12.854Z,45.53
2017-05-05T20:22:39.554Z,38.03
2017-05-05T20:25:06.316Z,44.37
2017-05-05T20:27:33.007Z,48.13
2017-05-05T20:29:59.674Z,50.52
2017-05-05T20:32:26.345Z,48.17
2017-05-05T20:34:53.034Z,46.43
2017-05-05T20:37:19.702Z,47.20
2017-05-05T20:39:46.466Z,47.18
2017-05-05T20:42:13.140Z,43.48
2017-05-05T20:44:39.990Z,43.77
2017-05-05T20:47:06.667Z,50.47
2017-05-05T20:49:33.355Z,39.52
2017-05-05T20:52:00.027Z,49.45
2017-05-05T20:54:26.774Z,45.28
2017-05-05T20:56:53.439Z,39.12
2017-05-05T20:59:20.102Z,37.87
2017-05-05T21:01:46.770Z,44.10
2017-05-05T21:04:13.459Z,41.35
2017-05-05T21:06:40.140Z,45.10
2017-05-05T21:09:06.808Z,49.30
2017-05-05T21:11:33.505Z,56.07
2017-05-05T21:14:00.211Z,42.95
2017-05-05T21:16:26.895Z,49.03
2017-05-05T21:18:53.604Z,43.93
2017-05-05T21:21:20.282Z,47.15
2017-05-05T21:23:46.964Z,41.53
2017-05-05T21:26:13.670Z,38.70
2017-05-05T21:28:40.344Z,32.63
2017-05-05T21:31:07.046Z,35.72
2017-05-05T21:33:33.731Z,35.50
2017-05-05T21:36:00.400Z,43.80
2017-05-05T21:38:27.062Z,38.52
2017-05-05T21:40:53.771Z,40.13
2017-05-05T21:43:20.435Z,42.78
2017-05-05T21:45:47.099Z,44.25
2017-05-05T21:48:13.777Z,42.52
2017-05-05T21:50:40.438Z,42.63
2017-05-05T21:53:07.103Z,41.58
2017-05-05T21:55:33.770Z,43.43
2017-05-05T21:58:00.438Z,38.55
2017-05-05T22:00:27.102Z,45.78
2017-05-05T22:02:53.770Z,43.78
2017-05-05T22:05:20.434Z,40.15
2017-05-05T22:07:47.102Z,42.87
2017-05-05T22:10:13.769Z,46.50
2017-05-05T22:12:40.462Z,43.50
2017-05-05T22:15:07.386Z,42.00
2017-05-05T22:17:34.086Z,43.18
2017-05-05T22:20:00.755Z,41.47
2017-05-05T22:22:27.423Z,45.18
2017-05-05T22:24:54.099Z,43.85
2017-05-05T22:27:20.770Z,50.50
2017-05-05T22:29:47.446Z,47.13
2017-05-05T22:32:14.117Z,41.45
2017-05-05T22:34:40.787Z,46.30
2017-05-05T22:37:07.447Z,48.07
2017-05-05T22:39:34.114Z,52.12
2017-05-05T22:42:00.785Z,46.57
2017-05-05T22:44:27.446Z,52.72
2017-05-05T22:46:54.114Z,51.10
2017-05-05T22:49:20.802Z,52.90
2017-05-05T22:51:47.472Z,52.38
2017-05-05T22:54:14.142Z,60.12
2017-05-05T22:56:40.806Z,56.70
2017-05-05T22:59:07.476Z,50.87
2017-05-05T23:01:34.142Z,56.88
2017-05-05T23:04:00.818Z,54.12
2017-05-05T23:06:27.494Z,53.12
2017-05-05T23:08:54.163Z,54.60
2017-05-05T23:11:20.838Z,54.77
2017-05-05T23:13:47.523Z,57.73
2017-05-05T23:16:14.191Z,53.83
2017-05-05T23:18:40.858Z,66.47
2017-05-05T23:21:07.522Z,54.88
2017-05-05T23:23:34.199Z,53.93
2017-05-05T23:26:00.889Z,57.07
2017-05-05T23:28:27.558Z,60.48
2017-05-05T23:30:54.250Z,66.75
2017-05-05T23:33:20.915Z,61.37
2017-05-05T23:35:47.604Z,70.65
2017-05-05T23:38:14.274Z,60.80
2017-05-05T23:40:40.985Z,59.60
2017-05-05T23:43:07.650Z,60.60
2017-05-05T23:45:34.310Z,58.28
2017-05-05T23:48:00.978Z,60.87
2017-05-05T23:50:27.647Z,66.08
2017-05-05T23:52:54.307Z,61.93
2017-05-05T23:55:20.981Z,61.27
2017-05-05T23:57:47.648Z,63.30
